Itay Melikson

Chefscout - Bnei Sakhnin
28 Nov 2027
Sonntag
Verarbeitung

Persönlichkeit

Anpassungsfähigkeit (7) Ehrgeiz (20) Kontroverse (16) Loyalität (14) Druck (15) Professionalität (15) Fairness (4) Temperament (14)

Profil

Trainerstil Demokratisch
Lizenz Kontinentale B
Entschlossenheit 5
Menschenführung 9
Motivation 10
Disziplin 8
Arbeitszufriedenheit
72%
Ermüdung
0%
Rolle Chefscout
Gehalt 10.4K p/W
Vertrag 14.03.2028

Leistung

Verhalten Gut
Trainingseffektivität
21%
Spielerentwicklung
40%
Verletzungsprävention
50%
Taktische Umsetzung
30%

Aktuell beobachtet

109
Spieler Verein Status Fähigkeit Vertrauen Beobachtet Zuletzt beobachtet Letzte Stimme
Fernando Martinez Llaneros Aktiv 113 / 99 40% 3 31.08.2027 -
Richard Figueroa Deportivo Lara Aktiv 113 / 109 40% 3 27.08.2027 -
Daniel Sosah Aktobe Aktiv 100 / 109 40% 1 27.08.2027 -
Erik Bodencer Central Norte Aktiv 105 / 102 40% 1 26.08.2027 -
Danilo Santacruz Madura United Aktiv 103 / 101 40% 1 25.08.2027 -
Andrés Molinas Flora Aktiv 115 / 89 40% 1 25.08.2027 -
Lautaro Gordillo Colegiales Aktiv 110 / 102 40% 1 24.08.2027 -
José Balza Deportivo Tachira Aktiv 99 / 113 40% 1 24.08.2027 -
Carlos Guerreño Slavia Mozyr Aktiv 107 / 111 40% 2 23.08.2027 -
Rodrigo Bogarín Barracas Central Aktiv 113 / 108 40% 1 23.08.2027 -
Jeriel De Santis Caracas Aktiv 92 / 105 40% 1 22.08.2027 -
Andrea Mattioli Arzignano Aktiv 125 / 91 40% 2 20.08.2027 -
Lisandro Cabrera Maipú Aktiv 115 / 101 40% 2 18.08.2027 -
Bruno Nasta San Miguel Aktiv 123 / 105 40% 1 18.08.2027 -
Juan Mendoza Güemes Aktiv 109 / 116 40% 1 17.08.2027 -
Luca Franco Arsenal Aktiv 89 / 123 40% 1 17.08.2027 -
Leonardo Mancuso Mantova Aktiv 118 / 112 40% 1 14.08.2027 -
Lorenzo De Leo Renate Aktiv 87 / 96 40% 1 13.08.2027 -
Federico Ricci Sorrento Aktiv 111 / 90 40% 1 13.08.2027 -
Eugenio D'Ursi Salernitana Aktiv 117 / 104 40% 1 11.08.2027 -
Agustín Lavezzi Quilmes Aktiv 122 / 117 40% 1 11.08.2027 -
Marco Bustillo Zamora Aktiv 98 / 87 40% 1 09.08.2027 -
Kaito Taniguchi Central Coast Mariners Aktiv 100 / 118 40% 1 09.08.2027 -
Nicolás Servetto Madryn Aktiv 135 / 128 40% 2 07.08.2027 -
Danny Rose Barrow AFC Aktiv 92 / 103 40% 1 07.08.2027 -
Jonathan Cañete Portuguesa Aktiv 112 / 123 40% 2 06.08.2027 -
Duncan Watmore Rotherham United Aktiv 131 / 108 40% 1 06.08.2027 -
Ben Adadi Bnei Yehuda Aktiv 105 / 107 40% 1 03.08.2027 -
Rui Costa Port Vale Aktiv 100 / 124 40% 1 03.08.2027 -
Mattia Finotto Carrarese Aktiv 97 / 101 40% 1 02.08.2027 -
Pietro Iemmello Catanzaro Aktiv 112 / 126 40% 1 02.08.2027 -
Vito Leonetti Casarano Aktiv 102 / 107 40% 1 31.07.2027 -
Isaac Oppong Hapoel Raanana Aktiv 96 / 97 40% 1 31.07.2027 -
Sam Hoskins Northampton Town Aktiv 95 / 102 40% 3 29.07.2027 -
Michael Smith Mansfield Town Aktiv 119 / 116 40% 3 29.07.2027 -
José Cortés Maccabi Petach Tikva Aktiv 128 / 115 40% 4 28.07.2027 -
Gianluca Caprari Padova Aktiv 139 / 138 40% 3 27.07.2027 -
Harry Cornick AFC Wimbledon Aktiv 98 / 93 40% 1 27.07.2027 -
Jort van der Sande Bali United Aktiv 119 / 108 40% 1 26.07.2027 -
Rafael Arace Caracas Aktiv 106 / 92 40% 2 25.07.2027 -
Adolfo Muñoz UTC Aktiv 136 / 110 40% 1 25.07.2027 -
Diego Gambale Audace Cerignola Aktiv 115 / 114 40% 1 24.07.2027 -
Mario Engels Heracles Aktiv 103 / 122 40% 1 23.07.2027 -
Domi Berlanga Vicenza Aktiv 98 / 87 40% 2 21.07.2027 -
Alexander Rosso Renate Aktiv 93 / 105 40% 2 16.07.2027 -
Mattia Iori Lumezzane Aktiv 92 / 91 40% 1 16.07.2027 -
Javier Martínez Almirante Brown Aktiv 114 / 100 40% 1 13.07.2027 -
Ilja Safronov Rotor Aktiv 106 / 111 40% 1 13.07.2027 -
Ronaldo Peña Deportivo Lara Aktiv 109 / 106 40% 1 12.07.2027 -
Jacopo Manconi Casertana Aktiv 114 / 116 40% 1 12.07.2027 -
Nicolás Heiz Maipú Aktiv 119 / 106 40% 2 09.07.2027 -
Enrico Baldini Bra Aktiv 115 / 105 40% 1 08.07.2027 -
Daniel Barrea Godoy Cruz Aktiv 122 / 116 40% 1 08.07.2027 -
Matías Romero Hapoel Kiryat Shmona Aktiv 114 / 116 40% 2 07.07.2027 -
Ollie Palmer Swindon Town Aktiv 115 / 108 40% 1 05.07.2027 -
Federico Vázquez Trapani Aktiv 86 / 101 40% 1 05.07.2027 -
Salvatore Longo Monopoli Aktiv 118 / 94 40% 2 02.07.2027 -
Josh Andrews Barnet Aktiv 90 / 85 40% 1 29.06.2027 -
Leonardo Morosini Carpi Aktiv 81 / 90 40% 1 24.06.2027 -
Lucas Cano All Boys Aktiv 104 / 118 40% 1 23.06.2027 -
Eric Lanini Novara Aktiv 119 / 101 40% 1 23.06.2027 -
Achraf Lazaar Hapoel Kfar Saba Aktiv 107 / 102 48% 1 21.06.2027 -
Beryly Lubala Barrow AFC Aktiv 92 / 104 40% 1 18.06.2027 -
Kamran Aliev SKA Khabarovsk Aktiv 114 / 95 40% 1 16.06.2027 -
Giacomo Zecca Torres Aktiv 115 / 103 40% 1 15.06.2027 -
Leon Sabua Ural Aktiv 119 / 90 40% 1 14.06.2027 -
Gianluca D'Auria Potenza Aktiv 101 / 101 40% 1 14.06.2027 -
Gianluca Contini Siracusa Aktiv 84 / 102 40% 1 13.06.2027 -
Michael De Marchi Pergolettese Aktiv 84 / 103 40% 1 11.06.2027 -
Ben Osborn Stockport County Aktiv 130 / 129 40% 1 11.06.2027 -
Shaun McWilliams Cheltenham Town Aktiv 116 / 91 40% 1 11.06.2027 -
Jamie Robson Oldham Athletic Aktiv 95 / 104 40% 1 10.06.2027 -
Nick Powell Newport County Aktiv 88 / 97 40% 1 10.06.2027 -
Awer Mabil Melbourne City Aktiv 117 / 136 40% 1 09.06.2027 -
Sam Morsy Blackburn Rovers Aktiv 146 / 125 40% 1 09.06.2027 -
Said Aliev Rotor Aktiv 85 / 89 40% 2 07.06.2027 -
Cedric Gondo Reggiana Aktiv 126 / 109 40% 1 06.06.2027 -
Guillermo May Auckland FC Aktiv 116 / 109 40% 1 05.06.2027 -
Amit Cohen Maccabi Netanya Aktiv 83 / 100 48% 1 01.06.2027 -
Nikita Kireev Dinamo Vologda Abgelehnt 97 / 79 40% 1 27.01.2027 Mehr Infos nötig
Merabi Uridia Fakel Aktiv 105 / 90 40% 1 23.01.2027 -
Jude Soonsup-Bell Hapoel Acre Aktiv 101 / 109 40% 1 23.01.2027 -
André Gzira United Aktiv 82 / 81 40% 1 17.01.2027 -
Marin Jurina MTK Budapest Aktiv 109 / 90 40% 1 16.01.2027 -
Nikolay Zlatev Cherno More Aktiv 105 / 91 40% 1 15.01.2027 -
Vladimir Nikolov Slavia Sofia Aktiv 86 / 104 40% 1 14.01.2027 -
Adar Ratner Maccabi Petach Tikva Aktiv 111 / 93 40% 1 12.01.2027 -
Luka Zahovič NK Maribor Aktiv 91 / 93 40% 1 10.01.2027 -
Soslan Lysenko Spartak Nalchik Aktiv 81 / 69 40% 1 09.01.2027 -
Facundo Pons MSK Zilina Aktiv 116 / 101 40% 1 08.01.2027 -
Amar Rahmanović Krylya Sovetov Aktiv 110 / 97 40% 1 08.01.2027 -
Alon Turgeman Hapoel Haifa Aktiv 95 / 104 40% 1 05.01.2027 -
Iñaki Baigorria Znamya Truda Aktiv 92 / 96 40% 1 01.01.2027 -
Celso Sidney Cherno More Aktiv 82 / 97 40% 1 01.01.2027 -
Diego Valencia Universidad Catolica Abgelehnt 126 / 122 40% 1 31.08.2026 Mehr Infos nötig
Tomás Salteño Rosario Central Abgelehnt 95 / 89 40% 1 31.08.2026 Mehr Infos nötig
Jakub Paur AS Trencin Aktiv 86 / 105 40% 1 23.08.2026 -
Flamarion Pakhtakor Aktiv 106 / 111 40% 1 21.08.2026 -
Richard Celis Zamora Aktiv 115 / 116 40% 1 20.08.2026 -
David Rosales Radnicki 1923 Aktiv 108 / 95 40% 1 18.08.2026 -
Léo Natel Ordabasy Aktiv 123 / 113 40% 1 09.08.2026 -
Dan Crowley Milton Keynes Dons Aktiv 118 / 111 40% 1 07.08.2026 -
Dalberto Arema Aktiv 115 / 119 40% 1 07.08.2026 -
Alex Smith Canterbury United Aktiv 82 / 80 40% 1 07.08.2026 -
Gonzalo Tapia Palestino Aktiv 83 / 105 40% 1 04.08.2026 -
Gonzalo Córdoba Mitre Aktiv 99 / 108 40% 1 04.08.2026 -
Adi Yona Beitar Jerusalem Aktiv 106 / 108 40% 1 04.08.2026 -
Daniel Udoh Salford City Aktiv 119 / 103 40% 1 03.08.2026 -
Dani Ojeda Huesca Aktiv 124 / 126 40% 1 01.08.2026 -